Sun River, Montana
Current Conditions -  °F | °C
As of 4:53 AM on Sunday 21 Dec 2014 (Local Time) from KGTF Reporting Station
Clear Clear  
Wind Chill: 33°   Ceiling: Unl
Heat Index: 42°   Visibility: 10mi
Dew Point: 31°   Wind: 21mph
Humidity: 65%   Direction: 210°SSW
Pressure: 29.35"   Gusts: 30mph
Location:  47.53°N, 111.73°W
Report Text: KGTF 211153Z 21018G26KT 10SM CLR 06/M01 A2935 RMK AO2 PK WND 22033/1103 SLP956 T00561006 10067 20039 56020
Loading
Personal Weather Stations






























Interactive Weather Map New forecast layout! Learn more

10-Day Weather Forecast

Advertisements
Track Severe Weather on mobile